Saint Leo, FL

8:29 AM EST on February 12, 2016 (GMT -0500)
Rural Wesley Chapel | | Change Station
CLOSE
Current Station
Personal Weather Station
Location: Wesley Chapel, FL
Elevation: 125 ft
Nearby Weather Stations

Elev 125 ft 28.30 °N, 82.30 °W | Updated 3 minutes ago

Partly Cloudy
Partly Cloudy
52.5 °F
Feels Like 52.5 °F
N
2.7
Wind Variable Wind from SW

Today
High -- | Low -- °F
--% Chance of Precip.
Yesterday
High -- | Low -- °F
Precip. -- in
Pressure 30.30 in
Visibility 10.0 miles
Clouds Clear
Dew Point 52 °F
Humidity 99%
Rainfall 0.03 in
Snow Depth Not available.
7:09 AM 6:17 PM
Waxing Crescent, 20% visible
METAR KZPH 121335Z AUTO 00000KT 10SM CLR 08/08 A3030 RMK AO2 T00800079
Pressure 30.30 in
Visibility 10.0 miles
Clouds Clear
Dew Point 52 °F
Humidity 99%
Rainfall 0.03 in
Snow Depth Not available.
7:09 AM 6:17 PM
Waxing Crescent, 20% visible
METAR KZPH 121335Z AUTO 00000KT 10SM CLR 08/08 A3030 RMK AO2 T00800079

10-Day Weather Forecast

Almanac

Astronomy

Feb. 12, 2016 Rise Set
Actual Time
Civil Twilight
Nautical Twilight
Astronomical Twilight
Moon
Length of Visible Light
Length of Day
Tomorrow will be .
, % of the Moon is Illuminated

Today's Extremes

State Highs State Lows

Community

WunderPhotos

Upload Photos

1,892,309 photos uploaded!

WunderBlog® & News

Nearby

Air Quality

  Air Quality AQ Index Pollutant
Not available.

Snow Depth

Station Depth Elevation

Earthquake Activity

City Distance Mag. Time & Date
Minimum magnitude displayed is 2.5.

Coastal Water Temperatures

Place Temperature

Stations

Nearby Weather Stations

Station Location Temp. Windchill Dew Point Humidity Wind Precip. Elev Updated Type
                   

Watches & Warnings

There are currently no watches in effect.